Time,TemperatureF,DewpointF,PressureIn,WindDirection,WindDirectionDegrees,WindSpeedMPH,WindSpeedGustMPH,Humidity,HourlyPrecipIn,Conditions,Clouds,dailyrainin,SoftwareType,DateUTC
2013-04-24 00:03:00,44.1,42.0,30.30,North,355,1.0,1.0,91,0.00,,,0.00,weatherlink.com 1.10,2013-04-24 07:03:00,
2013-04-24 00:18:00,44.5,42.0,30.30,North,355,0.0,2.0,91,0.00,,,0.00,weatherlink.com 1.10,2013-04-24 07:18:00,
2013-04-24 00:33:00,44.4,42.0,30.30,North,355,0.0,2.0,90,0.00,,,0.00,weatherlink.com 1.10,2013-04-24 07:33:00,
2013-04-24 00:48:00,44.5,42.0,30.30,ENE,74,2.0,3.0,89,0.00,,,0.00,weatherlink.com 1.10,2013-04-24 07:48:00,
2013-04-24 01:03:00,45.3,42.0,30.30,ENE,74,0.0,3.0,87,0.00,,,0.00,weatherlink.com 1.10,2013-04-24 08:03:00,
2013-04-24 01:18:00,45.6,42.0,30.30,East,85,1.0,2.0,86,0.00,,,0.00,weatherlink.com 1.10,2013-04-24 08:18:00,
2013-04-24 01:33:00,45.9,41.0,30.30,NE,54,1.0,3.0,84,0.00,,,0.00,weatherlink.com 1.10,2013-04-24 08:33:00,
2013-04-24 01:48:00,46.5,41.0,30.30,ENE,71,0.0,3.0,81,0.00,,,0.00,weatherlink.com 1.10,2013-04-24 08:48:00,
2013-04-24 02:03:00,47.3,41.0,30.30,NE,40,0.0,5.0,78,0.00,,,0.00,weatherlink.com 1.10,2013-04-24 09:03:00,
2013-04-24 02:18:00,48.3,40.0,30.29,East,82,0.0,5.0,74,0.00,,,0.00,weatherlink.com 1.10,2013-04-24 09:18:00,
2013-04-24 02:33:00,49.7,39.0,30.29,NE,51,1.0,6.0,68,0.00,,,0.00,weatherlink.com 1.10,2013-04-24 09:33:00,
2013-04-24 02:48:00,51.3,39.0,30.28,WNW,302,1.0,5.0,62,0.00,,,0.00,weatherlink.com 1.10,2013-04-24 09:48:00,
2013-04-24 03:03:00,50.3,38.0,30.29,West,275,0.0,5.0,64,0.00,,,0.00,weatherlink.com 1.10,2013-04-24 10:03:00,
2013-04-24 03:18:00,49.7,38.0,30.28,NNW,327,0.0,2.0,64,0.00,,,0.00,weatherlink.com 1.10,2013-04-24 10:18:00,
2013-04-24 03:33:00,49.0,38.0,30.29,SSE,155,0.0,4.0,65,0.00,,,0.00,weatherlink.com 1.10,2013-04-24 10:33:00,
2013-04-24 03:48:00,48.6,38.0,30.29,East,80,0.0,3.0,66,0.00,,,0.00,weatherlink.com 1.10,2013-04-24 10:48:00,
2013-04-24 04:03:00,48.1,37.0,30.29,East,84,0.0,2.0,66,0.00,,,0.00,weatherlink.com 1.10,2013-04-24 11:03:00,
2013-04-24 04:18:00,47.9,37.0,30.29,East,84,0.0,2.0,66,0.00,,,0.00,weatherlink.com 1.10,2013-04-24 11:18:00,
2013-04-24 04:33:00,48.7,36.0,30.28,NE,44,0.0,3.0,63,0.00,,,0.00,weatherlink.com 1.10,2013-04-24 11:33:00,
2013-04-24 04:48:00,49.5,36.0,30.29,West,279,0.0,4.0,61,0.00,,,0.00,weatherlink.com 1.10,2013-04-24 11:48:00,
2013-04-24 05:03:00,49.6,35.0,30.28,East,92,0.0,5.0,58,0.00,,,0.00,weatherlink.com 1.10,2013-04-24 12:03:00,
2013-04-24 05:18:00,50.6,35.0,30.28,WNW,282,3.0,6.0,55,0.00,,,0.00,weatherlink.com 1.10,2013-04-24 12:18:00,
2013-04-24 05:33:00,51.3,34.0,30.28,NNW,331,1.0,4.0,52,0.00,,,0.00,weatherlink.com 1.10,2013-04-24 12:33:00,
2013-04-24 05:48:00,51.5,33.0,30.28,North,355,0.0,7.0,50,0.00,,,0.00,weatherlink.com 1.10,2013-04-24 12:48:00,
2013-04-24 06:03:00,52.0,33.0,30.28,West,277,1.0,6.0,48,0.00,,,0.00,weatherlink.com 1.10,2013-04-24 13:03:00,
2013-04-24 06:18:00,51.2,34.0,30.27,West,267,3.0,6.0,52,0.00,,,0.00,weatherlink.com 1.10,2013-04-24 13:18:00,
2013-04-24 06:33:00,50.3,33.0,30.27,NW,306,4.0,5.0,51,0.00,,,0.00,weatherlink.com 1.10,2013-04-24 13:33:00,
2013-04-24 06:48:00,51.7,32.0,30.27,WNW,300,3.0,6.0,47,0.00,,,0.00,weatherlink.com 1.10,2013-04-24 13:48:00,
2013-04-24 07:03:00,51.8,32.0,30.28,NW,317,3.0,6.0,47,0.00,,,0.00,weatherlink.com 1.10,2013-04-24 14:03:00,
2013-04-24 07:18:00,52.3,32.0,30.28,North,355,2.0,5.0,46,0.00,,,0.00,weatherlink.com 1.10,2013-04-24 14:18:00,
2013-04-24 07:33:00,52.6,32.0,30.27,NW,311,1.0,5.0,46,0.00,,,0.00,weatherlink.com 1.10,2013-04-24 14:33:00,
2013-04-24 07:48:00,52.7,32.0,30.27,NW,319,2.0,7.0,45,0.00,,,0.00,weatherlink.com 1.10,2013-04-24 14:48:00,
2013-04-24 08:03:00,53.3,32.0,30.27,NNE,17,0.0,7.0,45,0.00,,,0.00,weatherlink.com 1.10,2013-04-24 15:03:00,
2013-04-24 08:18:00,54.0,32.0,30.28,NW,318,7.0,7.0,44,0.00,,,0.00,weatherlink.com 1.10,2013-04-24 15:18:00,
2013-04-24 08:33:00,54.6,32.0,30.27,East,88,7.0,11.0,42,0.00,,,0.00,weatherlink.com 1.10,2013-04-24 15:33:00,
2013-04-24 08:48:00,55.6,31.0,30.27,NNE,18,5.0,12.0,40,0.00,,,0.00,weatherlink.com 1.10,2013-04-24 15:48:00,
2013-04-24 09:04:00,56.3,31.0,30.27,SSW,192,2.0,7.0,39,0.00,,,0.00,weatherlink.com 1.10,2013-04-24 16:04:00,
2013-04-24 09:19:00,57.3,32.0,30.27,NNE,18,3.0,7.0,38,0.00,,,0.00,weatherlink.com 1.10,2013-04-24 16:19:00,
2013-04-24 09:34:00,58.4,32.0,30.27,NE,42,2.0,10.0,37,0.00,,,0.00,weatherlink.com 1.10,2013-04-24 16:34:00,
2013-04-24 09:49:00,59.3,34.0,30.27,NW,309,2.0,8.0,39,0.00,,,0.00,weatherlink.com 1.10,2013-04-24 16:49:00,
2013-04-24 10:04:00,59.6,36.0,30.27,North,360,2.0,9.0,42,0.00,,,0.00,weatherlink.com 1.10,2013-04-24 17:04:00,
2013-04-24 10:19:00,57.8,36.0,30.27,West,271,1.0,4.0,44,0.00,,,0.00,weatherlink.com 1.10,2013-04-24 17:19:00,
2013-04-24 10:34:00,59.4,34.0,30.27,WSW,244,0.0,5.0,38,0.00,,,0.00,weatherlink.com 1.10,2013-04-24 17:34:00,
2013-04-24 10:49:00,59.6,39.0,30.27,WSW,253,0.0,5.0,47,0.00,,,0.00,weatherlink.com 1.10,2013-04-24 17:49:00,
2013-04-24 11:04:00,60.4,36.0,30.26,NNW,337,0.0,3.0,41,0.00,,,0.00,weatherlink.com 1.10,2013-04-24 18:04:00,
2013-04-24 11:19:00,62.1,39.0,30.26,WNW,299,2.0,3.0,43,0.00,,,0.00,weatherlink.com 1.10,2013-04-24 18:19:00,
2013-04-24 11:34:00,63.6,37.0,30.26,West,271,3.0,5.0,37,0.00,,,0.00,weatherlink.com 1.10,2013-04-24 18:34:00,
2013-04-24 11:49:00,64.5,35.0,30.25,West,279,3.0,5.0,33,0.00,,,0.00,weatherlink.com 1.10,2013-04-24 18:49:00,
2013-04-24 12:04:00,62.8,42.0,30.25,West,260,6.0,9.0,46,0.00,,,0.00,weatherlink.com 1.10,2013-04-24 19:04:00,
2013-04-24 12:19:00,61.8,42.0,30.25,West,274,3.0,5.0,49,0.00,,,0.00,weatherlink.com 1.10,2013-04-24 19:19:00,
2013-04-24 12:34:00,63.4,39.0,30.24,WSW,258,3.0,5.0,40,0.00,,,0.00,weatherlink.com 1.10,2013-04-24 19:34:00,
2013-04-24 12:49:00,65.9,37.0,30.23,West,268,2.0,5.0,35,0.00,,,0.00,weatherlink.com 1.10,2013-04-24 19:49:00,
2013-04-24 13:04:00,67.0,37.0,30.23,NW,310,6.0,10.0,33,0.00,,,0.00,weatherlink.com 1.10,2013-04-24 20:04:00,
2013-04-24 13:19:00,66.5,36.0,30.22,West,261,6.0,9.0,33,0.00,,,0.00,weatherlink.com 1.10,2013-04-24 20:19:00,
2013-04-24 13:34:00,66.9,38.0,30.22,WNW,294,6.0,7.0,35,0.00,,,0.00,weatherlink.com 1.10,2013-04-24 20:34:00,
2013-04-24 13:49:00,66.7,37.0,30.21,West,265,0.0,7.0,34,0.00,,,0.00,weatherlink.com 1.10,2013-04-24 20:49:00,
2013-04-24 14:04:00,66.9,35.0,30.22,NNW,336,9.0,9.0,31,0.00,,,0.00,weatherlink.com 1.10,2013-04-24 21:04:00,
2013-04-24 14:19:00,66.9,38.0,30.21,NW,321,6.0,7.0,34,0.00,,,0.00,weatherlink.com 1.10,2013-04-24 21:19:00,
2013-04-24 14:34:00,66.7,38.0,30.21,NW,309,7.0,10.0,35,0.00,,,0.00,weatherlink.com 1.10,2013-04-24 21:34:00,
2013-04-24 14:49:00,66.5,39.0,30.21,NNW,338,3.0,9.0,37,0.00,,,0.00,weatherlink.com 1.10,2013-04-24 21:49:00,
2013-04-24 15:04:00,65.6,38.0,30.21,NE,38,4.0,11.0,37,0.00,,,0.00,weatherlink.com 1.10,2013-04-24 22:04:00,
2013-04-24 15:19:00,66.3,40.0,30.20,NNW,331,1.0,8.0,39,0.00,,,0.00,weatherlink.com 1.10,2013-04-24 22:19:00,
2013-04-24 15:34:00,65.8,41.0,30.19,NNW,338,2.0,10.0,41,0.00,,,0.00,weatherlink.com 1.10,2013-04-24 22:34:00,
2013-04-24 15:49:00,65.4,41.0,30.18,NNE,16,1.0,11.0,41,0.00,,,0.00,weatherlink.com 1.10,2013-04-24 22:49:00,
2013-04-24 16:04:00,65.8,41.0,30.18,NNW,333,2.0,7.0,41,0.00,,,0.00,weatherlink.com 1.10,2013-04-24 23:04:00,
2013-04-24 16:19:00,65.5,41.0,30.17,WNW,300,4.0,7.0,41,0.00,,,0.00,weatherlink.com 1.10,2013-04-24 23:19:00,
2013-04-24 16:34:00,64.8,41.0,30.17,North,9,2.0,9.0,42,0.00,,,0.00,weatherlink.com 1.10,2013-04-24 23:34:00,
2013-04-24 16:49:00,63.9,41.0,30.17,NE,45,3.0,11.0,43,0.00,,,0.00,weatherlink.com 1.10,2013-04-24 23:49:00,
2013-04-24 17:05:00,63.4,41.0,30.16,NNE,24,2.0,10.0,44,0.00,,,0.00,weatherlink.com 1.10,2013-04-25 00:05:00,
2013-04-24 17:20:00,63.7,39.0,30.15,NNE,16,5.0,14.0,41,0.00,,,0.00,weatherlink.com 1.10,2013-04-25 00:20:00,
2013-04-24 17:35:00,63.0,39.0,30.15,NE,43,6.0,10.0,41,0.00,,,0.00,weatherlink.com 1.10,2013-04-25 00:35:00,
2013-04-24 17:50:00,62.5,38.0,30.15,ENE,62,4.0,10.0,41,0.00,,,0.00,weatherlink.com 1.10,2013-04-25 00:50:00,
2013-04-24 18:05:00,63.0,37.0,30.14,WNW,298,7.0,8.0,39,0.00,,,0.00,weatherlink.com 1.10,2013-04-25 01:05:00,
2013-04-24 18:20:00,63.1,38.0,30.14,NW,311,7.0,9.0,39,0.00,,,0.00,weatherlink.com 1.10,2013-04-25 01:20:00,
2013-04-24 18:35:00,62.8,39.0,30.14,WNW,302,2.0,6.0,41,0.00,,,0.00,weatherlink.com 1.10,2013-04-25 01:35:00,
2013-04-24 18:50:00,63.0,38.0,30.14,WNW,296,3.0,6.0,40,0.00,,,0.00,weatherlink.com 1.10,2013-04-25 01:50:00,
2013-04-24 19:05:00,61.6,37.0,30.14,North,5,2.0,7.0,40,0.00,,,0.00,weatherlink.com 1.10,2013-04-25 02:05:00,
2013-04-24 19:20:00,60.4,38.0,30.14,NW,310,1.0,7.0,43,0.00,,,0.00,weatherlink.com 1.10,2013-04-25 02:20:00,
2013-04-24 19:35:00,59.6,40.0,30.13,West,273,0.0,4.0,48,0.00,,,0.00,weatherlink.com 1.10,2013-04-25 02:35:00,
2013-04-24 19:50:00,59.2,42.0,30.13,West,273,0.0,1.0,54,0.00,,,0.00,weatherlink.com 1.10,2013-04-25 02:50:00,
2013-04-24 20:05:00,57.5,43.0,30.14,West,273,1.0,1.0,58,0.00,,,0.00,weatherlink.com 1.10,2013-04-25 03:05:00,
2013-04-24 20:20:00,55.6,41.0,30.14,West,273,0.0,1.0,59,0.00,,,0.00,weatherlink.com 1.10,2013-04-25 03:20:00,
2013-04-24 20:35:00,54.1,41.0,30.14,West,273,0.0,1.0,61,0.00,,,0.00,weatherlink.com 1.10,2013-04-25 03:35:00,
2013-04-24 20:50:00,52.7,41.0,30.14,West,273,0.0,0.0,64,0.00,,,0.00,weatherlink.com 1.10,2013-04-25 03:50:00,
2013-04-24 21:05:00,51.9,41.0,30.14,West,273,0.0,2.0,67,0.00,,,0.00,weatherlink.com 1.10,2013-04-25 04:05:00,
2013-04-24 21:20:00,51.6,40.0,30.14,West,273,1.0,2.0,66,0.00,,,0.00,weatherlink.com 1.10,2013-04-25 04:20:00,
2013-04-24 21:35:00,51.2,41.0,30.14,West,273,1.0,2.0,69,0.00,,,0.00,weatherlink.com 1.10,2013-04-25 04:35:00,
2013-04-24 21:50:00,50.9,41.0,30.14,West,273,0.0,1.0,68,0.00,,,0.00,weatherlink.com 1.10,2013-04-25 04:50:00,
2013-04-24 22:05:00,51.2,41.0,30.13,West,273,1.0,1.0,67,0.00,,,0.00,weatherlink.com 1.10,2013-04-25 05:05:00,
2013-04-24 22:20:00,51.7,41.0,30.13,West,273,1.0,2.0,66,0.00,,,0.00,weatherlink.com 1.10,2013-04-25 05:20:00,
2013-04-24 22:35:00,52.0,40.0,30.14,West,273,1.0,1.0,65,0.00,,,0.00,weatherlink.com 1.10,2013-04-25 05:35:00,
2013-04-24 22:50:00,51.9,40.0,30.14,West,273,0.0,1.0,65,0.00,,,0.00,weatherlink.com 1.10,2013-04-25 05:50:00,
2013-04-24 23:05:00,51.4,40.0,30.14,West,273,0.0,1.0,66,0.00,,,0.00,weatherlink.com 1.10,2013-04-25 06:05:00,
2013-04-24 23:20:00,50.8,41.0,30.13,West,273,0.0,2.0,69,0.00,,,0.00,weatherlink.com 1.10,2013-04-25 06:20:00,
2013-04-24 23:35:00,50.7,40.0,30.13,West,273,0.0,1.0,68,0.00,,,0.00,weatherlink.com 1.10,2013-04-25 06:35:00,
2013-04-24 23:50:00,51.2,41.0,30.13,West,273,0.0,1.0,67,0.00,,,0.00,weatherlink.com 1.10,2013-04-25 06:50:00,